createdAt,value
2024-04-16T00:00:36.311Z,7.47
2024-04-16T00:01:36.623Z,7.46
2024-04-16T00:02:36.727Z,7.51
2024-04-16T00:03:36.995Z,7.55
2024-04-16T00:04:37.291Z,7.56
2024-04-16T00:05:37.397Z,7.53
2024-04-16T00:06:37.616Z,7.47
2024-04-16T00:07:37.865Z,7.44
2024-04-16T00:08:38.089Z,7.43
2024-04-16T00:09:38.309Z,7.47
2024-04-16T00:10:38.568Z,7.48
2024-04-16T00:11:38.765Z,7.44
2024-04-16T00:12:38.965Z,7.46
2024-04-16T00:13:39.281Z,7.46
2024-04-16T00:14:39.356Z,7.47
2024-04-16T00:15:39.557Z,7.43
2024-04-16T00:16:39.927Z,7.44
2024-04-16T00:17:39.951Z,7.43
2024-04-16T00:18:40.164Z,7.43
2024-04-16T00:19:40.453Z,7.50
2024-04-16T00:20:40.543Z,7.41
2024-04-16T00:21:40.771Z,7.43
2024-04-16T00:22:41.106Z,7.44
2024-04-16T00:23:41.227Z,7.48
2024-04-16T00:24:41.456Z,7.47
2024-04-16T00:25:41.650Z,7.50
2024-04-16T00:26:41.855Z,7.58
2024-04-16T00:27:42.072Z,7.46
2024-04-16T00:28:42.330Z,7.44
2024-04-16T00:29:42.531Z,7.43
2024-04-16T00:30:42.771Z,7.46
2024-04-16T00:31:43.077Z,7.46
2024-04-16T00:32:43.276Z,7.47
2024-04-16T00:33:43.376Z,7.50
2024-04-16T00:34:43.604Z,7.56
2024-04-16T00:35:43.802Z,7.56
2024-04-16T00:36:44.035Z,7.50
2024-04-16T00:37:44.254Z,7.59
2024-04-16T00:38:44.557Z,7.67
2024-04-16T00:39:44.741Z,7.62
2024-04-16T00:40:45.057Z,7.61
2024-04-16T00:41:45.136Z,7.61
2024-04-16T00:42:45.360Z,7.62
2024-04-16T00:43:45.606Z,7.55
2024-04-16T00:44:45.829Z,7.53
2024-04-16T00:45:46.047Z,7.56
2024-04-16T00:46:46.301Z,7.61
2024-04-16T00:47:46.583Z,7.59
2024-04-16T00:48:46.734Z,7.51
2024-04-16T00:49:46.827Z,7.55
2024-04-16T00:50:47.088Z,7.56
2024-04-16T00:51:47.321Z,7.55
2024-04-16T00:52:47.530Z,7.56
2024-04-16T00:53:47.777Z,7.51
2024-04-16T00:54:47.987Z,7.50
2024-04-16T00:55:48.233Z,7.50
2024-04-16T00:56:48.465Z,7.53
2024-04-16T00:57:48.684Z,7.56
2024-04-16T00:58:48.919Z,7.48
2024-04-16T00:59:49.163Z,7.44
2024-04-16T01:00:49.447Z,7.44
2024-04-16T01:01:49.649Z,7.50
2024-04-16T01:02:49.923Z,7.58
2024-04-16T01:03:50.121Z,7.58
2024-04-16T01:04:50.262Z,7.56
2024-04-16T01:05:50.454Z,7.61
2024-04-16T01:06:50.653Z,7.67
2024-04-16T01:07:50.913Z,7.64
2024-04-16T01:08:51.141Z,7.56
2024-04-16T01:09:51.345Z,7.55
2024-04-16T01:10:51.592Z,7.56
2024-04-16T01:11:51.824Z,7.50
2024-04-16T01:12:52.044Z,7.40
2024-04-16T01:13:52.265Z,7.36
2024-04-16T01:14:52.494Z,7.36
2024-04-16T01:15:52.735Z,7.33
2024-04-16T01:16:52.951Z,7.32
2024-04-16T01:17:53.257Z,7.29
2024-04-16T01:18:53.377Z,7.26
2024-04-16T01:19:53.655Z,7.22
2024-04-16T01:20:53.849Z,7.23
2024-04-16T01:21:54.100Z,7.19
2024-04-16T01:22:54.312Z,7.22
2024-04-16T01:23:54.549Z,7.23
2024-04-16T01:24:54.739Z,7.29
2024-04-16T01:25:54.969Z,7.29
2024-04-16T01:26:55.196Z,7.31
2024-04-16T01:27:55.391Z,7.29
2024-04-16T01:28:55.649Z,7.32
2024-04-16T01:29:55.885Z,7.31
2024-04-16T01:30:56.105Z,7.29
2024-04-16T01:31:56.348Z,7.28
2024-04-16T01:32:56.621Z,7.31
2024-04-16T01:33:56.818Z,7.31
2024-04-16T01:34:57.029Z,7.28
2024-04-16T01:35:57.241Z,7.28
2024-04-16T01:36:57.472Z,7.26
2024-04-16T01:37:57.691Z,7.26
2024-04-16T01:38:57.949Z,7.23
2024-04-16T01:39:58.183Z,7.19
2024-04-16T01:40:58.427Z,7.14
2024-04-16T01:41:58.679Z,7.14
2024-04-16T01:42:58.917Z,7.14
2024-04-16T01:43:59.140Z,7.21
2024-04-16T01:44:59.363Z,7.23
2024-04-16T01:45:59.609Z,7.18
2024-04-16T01:46:59.868Z,7.14
2024-04-16T01:48:00.212Z,7.10
2024-04-16T01:49:02.450Z,7.11
2024-04-16T01:50:00.586Z,7.10
2024-04-16T01:51:00.930Z,7.10
2024-04-16T01:52:00.983Z,7.13
2024-04-16T01:53:01.185Z,7.15
2024-04-16T01:54:01.411Z,7.15
2024-04-16T01:55:01.679Z,7.19
2024-04-16T01:56:01.920Z,7.15
2024-04-16T01:57:02.135Z,7.15
2024-04-16T01:58:02.472Z,7.15
2024-04-16T01:59:02.599Z,7.14
2024-04-16T02:00:02.745Z,7.15
2024-04-16T02:01:03.064Z,7.11
2024-04-16T02:02:03.179Z,7.08
2024-04-16T02:03:03.456Z,7.03
2024-04-16T02:04:03.844Z,7.01
2024-04-16T02:05:03.979Z,7.01
2024-04-16T02:06:04.060Z,7.03
2024-04-16T02:07:04.342Z,7.00
2024-04-16T02:08:04.518Z,6.96
2024-04-16T02:09:04.770Z,6.93
2024-04-16T02:10:05.022Z,6.86
2024-04-16T02:11:05.238Z,6.86
2024-04-16T02:12:05.513Z,6.83
2024-04-16T02:13:05.708Z,6.85
2024-04-16T02:14:05.968Z,6.87
2024-04-16T02:15:06.187Z,6.86
2024-04-16T02:16:06.418Z,6.87
2024-04-16T02:17:06.653Z,6.92
2024-04-16T02:18:06.988Z,6.92
2024-04-16T02:19:07.115Z,6.92
2024-04-16T02:20:07.335Z,6.87
2024-04-16T02:21:07.540Z,6.80
2024-04-16T02:22:07.799Z,6.80
2024-04-16T02:23:07.999Z,6.72
2024-04-16T02:24:08.238Z,6.75
2024-04-16T02:25:08.482Z,6.72
2024-04-16T02:26:08.682Z,6.78
2024-04-16T02:27:08.862Z,6.75
2024-04-16T02:28:09.113Z,6.78
2024-04-16T02:29:09.336Z,6.82
2024-04-16T02:30:09.540Z,6.85
2024-04-16T02:31:09.777Z,6.80
2024-04-16T02:32:10.052Z,6.78
2024-04-16T02:33:10.278Z,6.83
2024-04-16T02:34:10.526Z,6.82
2024-04-16T02:35:10.714Z,6.80
2024-04-16T02:36:10.945Z,6.78
2024-04-16T02:37:11.188Z,6.75
2024-04-16T02:38:11.390Z,6.74
2024-04-16T02:39:11.642Z,6.71
2024-04-16T02:40:11.883Z,6.72
2024-04-16T02:41:12.069Z,6.71
2024-04-16T02:42:12.304Z,6.67
2024-04-16T02:43:12.550Z,6.67
2024-04-16T02:44:12.777Z,6.64
2024-04-16T02:45:13.026Z,6.62
2024-04-16T02:46:13.248Z,6.54
2024-04-16T02:47:13.539Z,6.49
2024-04-16T02:48:13.733Z,6.44
2024-04-16T02:49:13.914Z,6.43
2024-04-16T02:50:14.085Z,6.41
2024-04-16T02:51:14.316Z,6.35
2024-04-16T02:52:14.548Z,6.32
2024-04-16T02:53:14.739Z,6.29
2024-04-16T02:54:14.993Z,6.22
2024-04-16T02:55:15.221Z,6.13
2024-04-16T02:56:15.440Z,6.13
2024-04-16T02:57:15.671Z,6.13
2024-04-16T02:58:15.915Z,6.12
2024-04-16T02:59:16.131Z,6.09
2024-04-16T03:00:16.365Z,6.10
2024-04-16T03:01:16.651Z,6.05
2024-04-16T03:02:16.811Z,6.02
2024-04-16T03:03:17.065Z,5.98
2024-04-16T03:04:17.343Z,5.95
2024-04-16T03:05:19.160Z,5.94
2024-04-16T03:06:17.753Z,5.94
2024-04-16T03:07:18.026Z,5.95
2024-04-16T03:08:18.250Z,5.94
2024-04-16T03:09:18.491Z,5.95
2024-04-16T03:10:18.746Z,5.98
2024-04-16T03:11:19.149Z,5.99
2024-04-16T03:12:19.167Z,6.01
2024-04-16T03:13:19.415Z,6.05
2024-04-16T03:14:19.650Z,6.06
2024-04-16T03:15:19.890Z,6.09
2024-04-16T03:16:20.129Z,6.07
2024-04-16T03:17:20.389Z,6.10
2024-04-16T03:18:20.538Z,6.10
2024-04-16T03:19:20.774Z,6.06
2024-04-16T03:20:20.964Z,6.07
2024-04-16T03:21:24.217Z,6.09
2024-04-16T03:22:21.474Z,6.10
2024-04-16T03:23:21.674Z,6.09
2024-04-16T03:24:21.925Z,6.10
2024-04-16T03:25:22.188Z,6.09
2024-04-16T03:26:22.381Z,6.07
2024-04-16T03:27:22.603Z,6.02
2024-04-16T03:28:22.867Z,6.05
2024-04-16T03:29:23.079Z,6.10
2024-04-16T03:30:23.317Z,6.12
2024-04-16T03:31:23.590Z,6.13
2024-04-16T03:32:23.835Z,6.13
2024-04-16T03:33:23.996Z,6.16
2024-04-16T03:34:24.336Z,6.19
2024-04-16T03:35:24.435Z,6.25
2024-04-16T03:36:24.683Z,6.28
2024-04-16T03:37:24.936Z,6.32
2024-04-16T03:38:25.171Z,6.31
2024-04-16T03:39:25.420Z,6.26
2024-04-16T03:40:25.662Z,6.25
2024-04-16T03:41:25.870Z,6.22
2024-04-16T03:42:26.102Z,6.25
2024-04-16T03:43:26.398Z,6.22
2024-04-16T03:44:26.607Z,6.25
2024-04-16T03:45:26.834Z,6.29
2024-04-16T03:46:27.090Z,6.32
2024-04-16T03:47:27.451Z,6.32
2024-04-16T03:48:27.575Z,6.32
2024-04-16T03:49:27.786Z,6.35
2024-04-16T03:50:27.885Z,6.32
2024-04-16T03:51:28.124Z,6.29
2024-04-16T03:52:28.378Z,6.31
2024-04-16T03:53:28.608Z,6.32
2024-04-16T03:54:28.821Z,6.31
2024-04-16T03:55:29.124Z,6.26
2024-04-16T03:56:29.315Z,6.28
2024-04-16T03:57:29.549Z,6.32
2024-04-16T03:58:29.844Z,6.35
2024-04-16T03:59:30.100Z,6.35
2024-04-16T04:00:30.330Z,6.31
2024-04-16T04:01:30.591Z,6.29
2024-04-16T04:02:30.835Z,6.28
2024-04-16T04:03:31.161Z,6.25
2024-04-16T04:04:31.319Z,6.22
2024-04-16T04:05:31.457Z,6.29
2024-04-16T04:06:31.690Z,6.31
2024-04-16T04:07:31.939Z,6.35
2024-04-16T04:08:32.148Z,6.39
2024-04-16T04:09:32.383Z,6.35
2024-04-16T04:10:32.624Z,6.34
2024-04-16T04:11:32.859Z,6.29
2024-04-16T04:12:32.994Z,6.32
2024-04-16T04:13:33.397Z,6.36
2024-04-16T04:14:33.471Z,6.34
2024-04-16T04:15:33.706Z,6.34
2024-04-16T04:16:34.107Z,6.36
2024-04-16T04:17:34.322Z,6.38
2024-04-16T04:18:34.441Z,6.41
2024-04-16T04:19:34.621Z,6.38
2024-04-16T04:20:34.712Z,6.39
2024-04-16T04:21:34.931Z,6.41
2024-04-16T04:22:35.329Z,6.36
2024-04-16T04:23:35.328Z,6.36
2024-04-16T04:24:35.924Z,6.38
2024-04-16T04:25:35.882Z,6.38
2024-04-16T04:26:35.928Z,6.39
2024-04-16T04:27:36.120Z,6.39
2024-04-16T04:28:36.447Z,6.39
2024-04-16T04:29:36.580Z,6.39
2024-04-16T04:30:36.801Z,6.41
2024-04-16T04:31:37.059Z,6.43
2024-04-16T04:32:39.337Z,6.41
2024-04-16T04:33:37.490Z,6.39
2024-04-16T04:34:37.791Z,6.46
2024-04-16T04:35:37.995Z,6.50
2024-04-16T04:36:38.201Z,6.54
2024-04-16T04:37:38.480Z,6.59
2024-04-16T04:38:38.600Z,6.65
2024-04-16T04:39:38.839Z,6.71
2024-04-16T04:40:39.104Z,6.77
2024-04-16T04:41:39.328Z,6.78
2024-04-16T04:42:39.558Z,6.80
2024-04-16T04:43:39.870Z,6.83
2024-04-16T04:44:39.988Z,6.89
2024-04-16T04:45:40.230Z,6.89
2024-04-16T04:46:40.507Z,6.93
2024-04-16T04:47:40.710Z,7.00
2024-04-16T04:48:40.839Z,7.07
2024-04-16T04:49:41.088Z,7.11
2024-04-16T04:50:41.283Z,7.04
2024-04-16T04:51:41.517Z,7.00
2024-04-16T04:52:41.807Z,7.03
2024-04-16T04:53:42.009Z,7.07
2024-04-16T04:54:42.261Z,7.07
2024-04-16T04:55:42.525Z,7.05
2024-04-16T04:56:42.702Z,7.05
2024-04-16T04:57:42.965Z,7.07
2024-04-16T04:58:43.203Z,6.96
2024-04-16T04:59:43.460Z,6.96
2024-04-16T05:00:43.683Z,6.80
2024-04-16T05:01:43.925Z,6.80
2024-04-16T05:02:44.229Z,6.75
2024-04-16T05:03:44.383Z,6.82
2024-04-16T05:04:44.677Z,6.75
2024-04-16T05:05:44.788Z,6.67
2024-04-16T05:06:44.980Z,6.68
2024-04-16T05:07:45.210Z,6.60
2024-04-16T05:08:45.440Z,6.52
2024-04-16T05:09:45.716Z,6.56
2024-04-16T05:10:45.962Z,6.56
2024-04-16T05:11:46.182Z,6.50
2024-04-16T05:12:46.408Z,6.57
2024-04-16T05:13:46.699Z,6.60
2024-04-16T05:14:46.928Z,6.65
2024-04-16T05:15:47.175Z,6.60
2024-04-16T05:16:47.439Z,6.57
2024-04-16T05:17:47.681Z,6.56
2024-04-16T05:18:47.974Z,6.49
2024-04-16T05:19:48.204Z,6.38
2024-04-16T05:20:48.417Z,6.44
2024-04-16T05:21:48.681Z,6.47
2024-04-16T05:22:48.906Z,6.49
2024-04-16T05:23:49.127Z,6.49
2024-04-16T05:24:49.376Z,6.47
2024-04-16T05:25:49.630Z,6.44
2024-04-16T05:26:49.843Z,6.54
2024-04-16T05:27:50.084Z,6.56
2024-04-16T05:28:50.349Z,6.54
2024-04-16T05:29:50.592Z,6.44
2024-04-16T05:30:50.835Z,6.47
2024-04-16T05:31:51.087Z,6.60
2024-04-16T05:32:51.405Z,6.67
2024-04-16T05:33:51.511Z,6.74
2024-04-16T05:34:51.761Z,6.85
2024-04-16T05:35:52.321Z,6.93
2024-04-16T05:36:52.175Z,6.96
2024-04-16T05:37:52.371Z,7.03
2024-04-16T05:38:52.633Z,7.21
2024-04-16T05:39:52.868Z,7.84
2024-04-16T05:40:55.061Z,7.98
2024-04-16T05:41:53.329Z,8.78
2024-04-16T05:42:53.552Z,9.40
2024-04-16T05:43:53.772Z,9.74
2024-04-16T05:44:54.012Z,9.59
2024-04-16T05:45:54.262Z,9.12
2024-04-16T05:46:54.489Z,8.54
2024-04-16T05:47:54.765Z,8.14
2024-04-16T05:48:54.957Z,7.74
2024-04-16T05:49:55.223Z,7.50
2024-04-16T05:50:55.325Z,7.32
2024-04-16T05:51:55.505Z,7.13
2024-04-16T05:52:55.693Z,7.05
2024-04-16T05:53:55.896Z,7.04
2024-04-16T05:54:56.145Z,6.97
2024-04-16T05:55:56.373Z,6.97
2024-04-16T05:56:56.596Z,7.03
2024-04-16T05:57:56.828Z,7.15
2024-04-16T05:58:57.056Z,7.15
2024-04-16T05:59:59.202Z,7.10
2024-04-16T06:00:57.522Z,7.18
2024-04-16T06:01:57.766Z,7.14
2024-04-16T06:02:57.871Z,7.18
2024-04-16T06:03:58.232Z,7.28
2024-04-16T06:04:58.380Z,7.25
2024-04-16T06:05:59.111Z,7.32
2024-04-16T06:06:58.851Z,7.28
2024-04-16T06:07:59.076Z,7.14
2024-04-16T06:08:59.309Z,7.04
2024-04-16T06:09:59.566Z,6.97
2024-04-16T06:10:59.792Z,7.08
2024-04-16T06:12:00.025Z,7.15
2024-04-16T06:13:00.269Z,7.26
2024-04-16T06:14:00.488Z,7.21
2024-04-16T06:15:00.727Z,7.18
2024-04-16T06:16:01.024Z,7.13
2024-04-16T06:17:01.276Z,7.11
2024-04-16T06:18:01.583Z,7.18
2024-04-16T06:19:01.674Z,7.11
2024-04-16T06:20:01.981Z,7.10
2024-04-16T06:21:02.200Z,7.14
2024-04-16T06:22:02.516Z,7.14
2024-04-16T06:23:02.618Z,7.15
2024-04-16T06:24:02.858Z,7.25
2024-04-16T06:25:03.165Z,7.29
2024-04-16T06:26:03.259Z,7.23
2024-04-16T06:27:03.525Z,7.23
2024-04-16T06:28:03.777Z,7.28
2024-04-16T06:29:03.965Z,7.23
2024-04-16T06:30:04.205Z,7.08
2024-04-16T06:31:04.499Z,7.08
2024-04-16T06:32:04.693Z,7.15
2024-04-16T06:33:05.018Z,7.14
2024-04-16T06:34:05.307Z,7.04
2024-04-16T06:35:05.349Z,6.95
2024-04-16T06:36:05.604Z,6.96
2024-04-16T06:37:05.831Z,7.05
2024-04-16T06:38:06.052Z,7.04
2024-04-16T06:39:06.288Z,7.14
2024-04-16T06:40:06.586Z,7.26
2024-04-16T06:41:06.778Z,7.31
2024-04-16T06:42:07.015Z,7.31
2024-04-16T06:43:07.234Z,7.26
2024-04-16T06:44:07.436Z,7.29
2024-04-16T06:45:07.695Z,7.32
2024-04-16T06:46:07.972Z,7.37
2024-04-16T06:47:08.168Z,7.37
2024-04-16T06:48:08.432Z,7.39
2024-04-16T06:49:14.010Z,7.36
2024-04-16T06:50:09.766Z,7.33
2024-04-16T06:51:08.957Z,7.36
2024-04-16T06:52:09.231Z,7.41
2024-04-16T06:53:09.433Z,7.40
2024-04-16T06:54:09.703Z,7.39
2024-04-16T06:55:09.928Z,7.33
2024-04-16T06:56:09.997Z,7.46
2024-04-16T06:57:10.240Z,7.50
2024-04-16T06:58:10.482Z,7.56
2024-04-16T06:59:10.694Z,7.59
2024-04-16T07:00:10.940Z,7.56
2024-04-16T07:01:11.294Z,7.46
2024-04-16T07:02:11.407Z,7.47
2024-04-16T07:03:11.644Z,7.47
2024-04-16T07:04:11.898Z,7.47
2024-04-16T07:05:12.108Z,7.51
2024-04-16T07:06:12.343Z,7.53
2024-04-16T07:07:12.599Z,7.61
2024-04-16T07:08:12.843Z,7.70
2024-04-16T07:09:13.059Z,7.80
2024-04-16T07:10:13.380Z,7.81
2024-04-16T07:11:13.473Z,7.75
2024-04-16T07:12:13.681Z,7.83
2024-04-16T07:13:15.840Z,7.83
2024-04-16T07:14:14.088Z,7.80
2024-04-16T07:15:14.355Z,7.78
2024-04-16T07:16:14.603Z,7.88
2024-04-16T07:17:14.830Z,7.88
2024-04-16T07:18:15.198Z,7.90
2024-04-16T07:19:15.264Z,8.02
2024-04-16T07:20:15.483Z,8.03
2024-04-16T07:21:15.691Z,8.14
2024-04-16T07:22:15.898Z,8.17
2024-04-16T07:23:16.085Z,8.03
2024-04-16T07:24:16.292Z,7.99
2024-04-16T07:25:16.517Z,8.03
2024-04-16T07:26:16.689Z,8.11
2024-04-16T07:27:16.892Z,8.08
2024-04-16T07:28:17.104Z,8.02
2024-04-16T07:29:17.332Z,8.08
2024-04-16T07:30:17.621Z,8.03
2024-04-16T07:31:19.430Z,8.05
2024-04-16T07:32:18.080Z,8.08
2024-04-16T07:33:18.469Z,8.17
2024-04-16T07:34:18.545Z,8.21
2024-04-16T07:35:18.712Z,8.26
2024-04-16T07:36:18.884Z,8.28
2024-04-16T07:37:19.092Z,8.27
2024-04-16T07:38:19.290Z,8.28
2024-04-16T07:39:19.482Z,8.50
2024-04-16T07:40:19.804Z,8.66
2024-04-16T07:41:19.912Z,8.59
2024-04-16T07:42:20.161Z,8.57
2024-04-16T07:43:20.388Z,8.53
2024-04-16T07:44:20.586Z,8.38
2024-04-16T07:45:20.799Z,8.27
2024-04-16T07:46:21.064Z,8.23
2024-04-16T07:47:21.271Z,8.21
2024-04-16T07:48:21.522Z,8.18
2024-04-16T07:49:21.709Z,8.23
2024-04-16T07:50:21.896Z,8.26
2024-04-16T07:51:22.103Z,8.32
2024-04-16T07:52:22.375Z,8.26
2024-04-16T07:53:22.531Z,8.21
2024-04-16T07:54:22.734Z,8.18
2024-04-16T07:55:23.011Z,8.14
2024-04-16T07:56:23.108Z,8.16
2024-04-16T07:57:23.322Z,8.02
2024-04-16T07:58:23.540Z,7.98
2024-04-16T07:59:23.735Z,7.93
2024-04-16T08:00:23.997Z,7.90
2024-04-16T08:01:24.379Z,7.96
2024-04-16T08:02:26.578Z,7.95
2024-04-16T08:03:24.570Z,7.85
2024-04-16T08:04:24.937Z,7.85
2024-04-16T08:05:24.941Z,7.93
2024-04-16T08:06:25.145Z,7.99
2024-04-16T08:07:25.445Z,7.99
2024-04-16T08:08:32.780Z,7.95
2024-04-16T08:09:26.710Z,7.93
2024-04-16T08:10:26.013Z,7.99
2024-04-16T08:11:26.147Z,7.95
2024-04-16T08:12:26.332Z,7.93
2024-04-16T08:13:26.601Z,7.87
2024-04-16T08:14:26.721Z,7.91
2024-04-16T08:15:26.939Z,7.95
2024-04-16T08:16:27.213Z,7.96
2024-04-16T08:17:27.607Z,8.02
2024-04-16T08:18:27.562Z,8.01
2024-04-16T08:19:27.850Z,8.03
2024-04-16T08:20:27.961Z,7.99
2024-04-16T08:21:28.167Z,8.01
2024-04-16T08:22:28.359Z,8.05
2024-04-16T08:23:28.576Z,8.03
2024-04-16T08:24:28.784Z,8.06
2024-04-16T08:25:29.023Z,8.03
2024-04-16T08:26:29.223Z,8.03
2024-04-16T08:27:29.475Z,8.08
2024-04-16T08:28:29.793Z,8.14
2024-04-16T08:29:29.846Z,8.28
2024-04-16T08:30:30.081Z,8.24
2024-04-16T08:31:30.366Z,8.24
2024-04-16T08:32:30.508Z,8.35
2024-04-16T08:33:30.961Z,8.46
2024-04-16T08:34:30.892Z,8.52
2024-04-16T08:35:31.118Z,8.39
2024-04-16T08:36:31.256Z,8.39
2024-04-16T08:37:31.510Z,8.44
2024-04-16T08:38:31.676Z,8.44
2024-04-16T08:39:31.799Z,8.42
2024-04-16T08:40:32.056Z,8.38
2024-04-16T08:41:32.149Z,8.45
2024-04-16T08:42:32.358Z,8.52
2024-04-16T08:43:32.622Z,8.59
2024-04-16T08:44:32.887Z,8.66
2024-04-16T08:45:33.038Z,8.78
2024-04-16T08:46:33.394Z,8.78
2024-04-16T08:47:33.517Z,8.81
2024-04-16T08:48:33.615Z,8.86
2024-04-16T08:49:33.872Z,8.90
2024-04-16T08:50:33.983Z,8.93
2024-04-16T08:51:34.189Z,8.99
2024-04-16T08:52:34.433Z,9.15
2024-04-16T08:53:34.573Z,9.18
2024-04-16T08:54:34.746Z,9.22
2024-04-16T08:55:35.057Z,9.21
2024-04-16T08:56:35.129Z,9.27
2024-04-16T08:57:35.327Z,9.33
2024-04-16T08:58:35.574Z,9.56
2024-04-16T08:59:35.749Z,9.73
2024-04-16T09:00:36.009Z,9.70
2024-04-16T09:01:36.112Z,9.76
2024-04-16T09:02:36.319Z,9.94
2024-04-16T09:03:36.477Z,10.15
2024-04-16T09:04:36.741Z,10.34
2024-04-16T09:05:36.847Z,10.34
2024-04-16T09:06:37.047Z,10.21
2024-04-16T09:07:37.298Z,10.12
2024-04-16T09:08:37.421Z,10.00
2024-04-16T09:09:37.613Z,9.82
2024-04-16T09:10:37.916Z,9.82
2024-04-16T09:11:38.101Z,9.69
2024-04-16T09:12:38.206Z,9.73
2024-04-16T09:13:38.405Z,9.73
2024-04-16T09:14:38.571Z,9.84
2024-04-16T09:15:38.775Z,9.82
2024-04-16T09:16:39.166Z,9.82
2024-04-16T09:17:39.182Z,9.85
2024-04-16T09:18:39.362Z,9.85
2024-04-16T09:19:39.624Z,9.82
2024-04-16T09:20:39.697Z,9.85
2024-04-16T09:21:39.865Z,9.91
2024-04-16T09:22:40.169Z,10.17
2024-04-16T09:23:40.233Z,10.46
2024-04-16T09:24:40.414Z,10.71
2024-04-16T09:25:40.766Z,10.79
2024-04-16T09:26:40.729Z,11.20
2024-04-16T09:27:40.889Z,11.22
2024-04-16T09:28:41.124Z,11.74
2024-04-16T09:29:41.294Z,11.91
2024-04-16T09:30:41.443Z,12.02
2024-04-16T09:31:41.647Z,12.21
2024-04-16T09:32:41.834Z,12.54
2024-04-16T09:33:42.057Z,12.47
2024-04-16T09:34:42.137Z,12.58
2024-04-16T09:35:42.282Z,12.72
2024-04-16T09:36:42.366Z,12.28
2024-04-16T09:37:44.239Z,11.99
2024-04-16T09:38:42.635Z,11.56
2024-04-16T09:39:42.764Z,11.30
2024-04-16T09:40:42.974Z,11.16
2024-04-16T09:41:43.076Z,11.01
2024-04-16T09:42:43.223Z,10.69
2024-04-16T09:43:43.628Z,10.48
2024-04-16T09:44:43.566Z,10.38
2024-04-16T09:45:43.741Z,10.20
2024-04-16T09:46:43.996Z,10.03
2024-04-16T09:47:44.126Z,9.92
2024-04-16T09:48:44.274Z,9.92
2024-04-16T09:49:55.160Z,9.84
2024-04-16T09:50:53.826Z,9.69
2024-04-16T09:51:45.678Z,9.64
2024-04-16T09:52:44.900Z,9.58
2024-04-16T09:53:45.390Z,9.69
2024-04-16T09:54:45.275Z,9.72
2024-04-16T09:55:45.479Z,9.85
2024-04-16T09:56:45.639Z,9.99
2024-04-16T09:57:45.813Z,10.17
2024-04-16T09:58:46.037Z,10.33
2024-04-16T09:59:46.215Z,10.67
2024-04-16T10:00:46.391Z,10.83
2024-04-16T10:01:46.649Z,10.94
2024-04-16T10:02:46.773Z,11.18
2024-04-16T10:03:46.930Z,11.31
2024-04-16T10:04:47.117Z,11.38
2024-04-16T10:05:47.236Z,11.59
2024-04-16T10:06:47.426Z,11.74
2024-04-16T10:07:47.615Z,11.78
2024-04-16T10:08:47.818Z,11.99
2024-04-16T10:09:47.974Z,12.03
2024-04-16T10:10:48.292Z,11.81
2024-04-16T10:11:48.340Z,11.45
2024-04-16T10:12:48.460Z,11.45
2024-04-16T10:13:48.654Z,11.41
2024-04-16T10:14:48.791Z,11.23
2024-04-16T10:15:48.957Z,11.19
2024-04-16T10:16:49.161Z,11.27
2024-04-16T10:17:49.370Z,11.20
2024-04-16T10:18:49.418Z,11.16
2024-04-16T10:19:49.675Z,11.02
2024-04-16T10:20:49.794Z,11.00
2024-04-16T10:21:49.977Z,11.00
2024-04-16T10:22:50.534Z,11.02
2024-04-16T10:23:50.370Z,11.04
2024-04-16T10:24:50.531Z,11.08
2024-04-16T10:25:50.814Z,11.08
2024-04-16T10:26:50.885Z,11.01
2024-04-16T10:27:51.056Z,11.07
2024-04-16T10:28:51.253Z,11.01
2024-04-16T10:29:51.392Z,10.97
2024-04-16T10:30:51.553Z,11.10
2024-04-16T10:31:51.839Z,11.59
2024-04-16T10:32:51.964Z,11.93
2024-04-16T10:33:52.102Z,12.15
2024-04-16T10:34:52.283Z,12.21
2024-04-16T10:35:52.446Z,12.26
2024-04-16T10:36:52.616Z,12.21
2024-04-16T10:37:52.792Z,12.18
2024-04-16T10:38:52.941Z,12.33
2024-04-16T10:39:53.103Z,12.50
2024-04-16T10:40:53.259Z,12.55
2024-04-16T10:41:53.427Z,12.72
2024-04-16T10:42:53.583Z,12.99
2024-04-16T10:43:53.741Z,13.64
2024-04-16T10:44:53.865Z,15.14
2024-04-16T10:45:54.069Z,15.59
2024-04-16T10:46:54.384Z,15.07
2024-04-16T10:47:54.358Z,14.77
2024-04-16T10:48:54.478Z,14.28
2024-04-16T10:49:54.567Z,13.80
2024-04-16T10:50:54.649Z,13.43
2024-04-16T10:51:54.759Z,12.86
2024-04-16T10:52:54.915Z,12.43
2024-04-16T10:53:54.983Z,12.40
2024-04-16T10:54:56.932Z,12.32
2024-04-16T10:55:55.296Z,12.29
2024-04-16T10:56:55.390Z,12.33
2024-04-16T10:57:55.518Z,12.32
2024-04-16T10:58:55.633Z,12.25
2024-04-16T11:00:04.374Z,12.28
2024-04-16T11:00:57.034Z,12.95
2024-04-16T11:01:56.187Z,13.09
2024-04-16T11:02:56.286Z,13.06
2024-04-16T11:03:56.406Z,12.86
2024-04-16T11:04:56.538Z,12.80
2024-04-16T11:05:56.613Z,12.80
2024-04-16T11:06:57.698Z,12.55
2024-04-16T11:07:57.005Z,12.23
2024-04-16T11:08:57.073Z,11.97
2024-04-16T11:09:57.195Z,11.96
2024-04-16T11:10:57.517Z,11.95
2024-04-16T11:11:57.497Z,11.76
2024-04-16T11:12:57.635Z,11.63
2024-04-16T11:13:57.763Z,11.49
2024-04-16T11:14:57.892Z,11.41
2024-04-16T11:15:58.023Z,11.38
2024-04-16T11:16:58.176Z,11.38
2024-04-16T11:17:58.450Z,11.48
2024-04-16T11:18:58.445Z,11.44
2024-04-16T11:19:58.552Z,11.30
2024-04-16T11:20:58.734Z,11.26
2024-04-16T11:21:58.902Z,11.27
2024-04-16T11:22:59.067Z,11.20
2024-04-16T11:23:59.227Z,11.13
2024-04-16T11:24:59.400Z,11.16
2024-04-16T11:25:59.978Z,11.19
2024-04-16T11:26:59.710Z,11.19
2024-04-16T11:27:59.872Z,11.27
2024-04-16T11:29:00.027Z,11.40
2024-04-16T11:30:00.259Z,11.40
2024-04-16T11:31:00.331Z,11.41
2024-04-16T11:32:00.512Z,11.43
2024-04-16T11:33:00.759Z,11.56
2024-04-16T11:34:00.870Z,11.62
2024-04-16T11:35:01.077Z,11.65
2024-04-16T11:36:01.264Z,11.65
2024-04-16T11:37:01.468Z,11.67
2024-04-16T11:38:01.632Z,11.76
2024-04-16T11:39:01.797Z,11.74
2024-04-16T11:40:01.964Z,11.60
2024-04-16T11:41:05.895Z,11.55
2024-04-16T11:42:03.275Z,11.53
2024-04-16T11:43:02.439Z,11.48
2024-04-16T11:44:02.616Z,11.52
2024-04-16T11:45:02.758Z,11.63
2024-04-16T11:46:02.956Z,11.71
2024-04-16T11:47:03.172Z,11.85
2024-04-16T11:48:03.525Z,11.99
2024-04-16T11:49:03.430Z,11.89
2024-04-16T11:50:03.599Z,11.89
2024-04-16T11:51:03.745Z,11.81
2024-04-16T11:52:03.915Z,11.83
2024-04-16T11:53:04.082Z,11.91
2024-04-16T11:54:04.278Z,12.00
2024-04-16T11:55:04.403Z,12.05
2024-04-16T11:56:04.598Z,12.05
2024-04-16T11:57:05.002Z,12.05
2024-04-16T11:58:04.941Z,12.08
2024-04-16T11:59:05.206Z,12.14
2024-04-16T12:00:05.201Z,12.32
2024-04-16T12:01:05.507Z,12.48
2024-04-16T12:02:07.100Z,12.44
2024-04-16T12:03:05.721Z,12.39
2024-04-16T12:04:06.038Z,12.55
2024-04-16T12:05:06.167Z,12.68
2024-04-16T12:06:06.176Z,12.62
2024-04-16T12:07:06.319Z,12.44
2024-04-16T12:08:08.159Z,12.35
2024-04-16T12:09:06.601Z,12.39
2024-04-16T12:10:06.775Z,12.39
2024-04-16T12:11:06.978Z,12.40
2024-04-16T12:12:07.092Z,12.23
2024-04-16T12:13:07.297Z,11.89
2024-04-16T12:14:10.529Z,11.68
2024-04-16T12:15:07.617Z,11.63
2024-04-16T12:16:07.787Z,11.53
2024-04-16T12:17:07.961Z,11.45
2024-04-16T12:18:08.118Z,11.35
2024-04-16T12:19:08.234Z,11.26
2024-04-16T12:20:11.338Z,11.25
2024-04-16T12:21:08.572Z,11.27
2024-04-16T12:22:08.753Z,11.30
2024-04-16T12:23:08.913Z,11.35
2024-04-16T12:24:09.074Z,11.41
2024-04-16T12:25:09.211Z,11.48
2024-04-16T12:26:09.379Z,11.44
2024-04-16T12:27:09.571Z,11.37
2024-04-16T12:28:09.755Z,11.18
2024-04-16T12:29:09.911Z,10.87
2024-04-16T12:30:10.089Z,10.71
2024-04-16T12:31:10.304Z,10.42
2024-04-16T12:32:10.539Z,10.25
2024-04-16T12:33:15.765Z,10.06
2024-04-16T12:34:11.812Z,10.02
2024-04-16T12:35:13.305Z,9.87
2024-04-16T12:36:11.144Z,9.73
2024-04-16T12:37:11.323Z,9.70
2024-04-16T12:38:11.513Z,9.69
2024-04-16T12:39:11.753Z,9.70
2024-04-16T12:40:11.892Z,9.77
2024-04-16T12:41:12.049Z,9.85
2024-04-16T12:42:12.247Z,9.92
2024-04-16T12:43:12.461Z,9.97
2024-04-16T12:44:12.611Z,10.17
2024-04-16T12:45:12.784Z,10.34
2024-04-16T12:46:13.000Z,10.59
2024-04-16T12:47:13.156Z,10.79
2024-04-16T12:48:13.391Z,11.04
2024-04-16T12:49:13.576Z,11.22
2024-04-16T12:50:16.363Z,11.53
2024-04-16T12:51:13.892Z,11.65
2024-04-16T12:52:14.075Z,11.83
2024-04-16T12:53:14.262Z,11.89
2024-04-16T12:54:14.426Z,11.97
2024-04-16T12:55:14.683Z,12.12
2024-04-16T12:56:14.808Z,12.17
2024-04-16T12:57:14.931Z,12.35
2024-04-16T12:58:15.164Z,12.43
2024-04-16T12:59:15.302Z,12.58
2024-04-16T13:00:15.469Z,12.68
2024-04-16T13:01:15.756Z,12.68
2024-04-16T13:02:15.878Z,12.73
2024-04-16T13:03:16.065Z,12.70
2024-04-16T13:04:16.153Z,12.83
2024-04-16T13:05:16.263Z,12.76
2024-04-16T13:06:16.443Z,12.87
2024-04-16T13:07:16.597Z,12.90
2024-04-16T13:08:19.294Z,12.88
2024-04-16T13:09:16.879Z,12.80
2024-04-16T13:10:17.111Z,12.76
2024-04-16T13:11:17.281Z,12.86
2024-04-16T13:12:17.405Z,12.73
2024-04-16T13:13:17.638Z,12.65
2024-04-16T13:14:17.622Z,12.68